Time;durP1;ratioP1;P1;durP2;ratioP2;P2;SDS_P1;SDS_P2;PMS_P1;PMS_P2;Temp;Humidity;BMP_temperature;BMP_pressure;BME280_temperature;BME280_humidity;BME280_pressure;Samples;Min_cycle;Max_cycle;Signal;HPM_P1;HPM_P2
2022/06/05 00:00:15;;;;;;;12.40;11.43;;;;;;;13.80;100.00;96710.88;5071433;28;20433;-73
2022/06/05 00:02:54;;;;;;;12.33;11.33;;;;;;;13.79;100.00;96712.75;5086485;28;20833;-72
2022/06/05 00:05:27;;;;;;;12.33;11.37;;;;;;;13.78;100.00;96699.81;5053176;28;20441;-73
2022/06/05 00:08:14;;;;;;;13.13;11.90;;;;;;;13.56;100.00;96706.41;5069866;28;20440;-73
2022/06/05 00:10:55;;;;;;;12.00;11.10;;;;;;;13.45;100.00;96682.16;5053013;28;20495;-73
2022/06/05 00:13:40;;;;;;;12.03;11.00;;;;;;;13.61;100.00;96701.59;5069613;28;20997;-73
2022/06/05 00:16:08;;;;;;;12.77;11.90;;;;;;;13.52;100.00;96695.66;5060446;28;20463;-73
2022/06/05 00:18:37;;;;;;;12.50;11.50;;;;;;;13.46;100.00;96702.31;5069768;28;20479;-73
2022/06/05 00:21:06;;;;;;;13.07;11.97;;;;;;;13.36;100.00;96691.41;5069842;28;20421;-73
2022/06/05 00:23:32;;;;;;;13.47;12.37;;;;;;;12.84;100.00;96621.19;5049735;28;20546;-73
2022/06/05 00:26:23;;;;;;;12.83;11.87;;;;;;;13.18;100.00;96667.72;5060475;28;20459;-73
2022/06/05 00:28:58;;;;;;;12.30;11.40;;;;;;;13.47;100.00;96693.22;5069621;28;20441;-73
2022/06/05 00:31:49;;;;;;;12.23;11.33;;;;;;;13.44;100.00;96680.63;5071248;28;20456;-73
2022/06/05 00:34:16;;;;;;;13.60;12.50;;;;;;;13.48;100.00;96680.72;5089902;28;20984;-72
2022/06/05 00:36:58;;;;;;;14.40;13.30;;;;;;;13.55;100.00;96688.91;5067938;28;20444;-72
2022/06/05 00:39:45;;;;;;;14.33;13.13;;;;;;;13.50;100.00;96694.47;5069436;28;20460;-73
2022/06/05 00:42:18;;;;;;;13.00;12.00;;;;;;;13.23;100.00;96662.19;5069480;28;20462;-73
2022/06/05 00:44:59;;;;;;;13.10;12.17;;;;;;;13.16;100.00;96688.50;5087887;28;20470;-73
2022/06/05 00:47:30;;;;;;;14.67;13.57;;;;;;;13.22;100.00;96689.06;5077512;28;20428;-73
2022/06/05 00:50:08;;;;;;;14.37;12.83;;;;;;;13.08;100.00;96683.28;5069479;28;20900;-73
2022/06/05 00:52:40;;;;;;;15.80;14.60;;;;;;;12.95;100.00;96677.22;5085397;28;20550;-73
2022/06/05 00:55:08;;;;;;;17.57;15.97;;;;;;;12.82;100.00;96662.41;5079903;28;20459;-73
2022/06/05 00:57:36;;;;;;;19.70;17.90;;;;;;;12.73;100.00;96668.59;5072982;28;20975;-73
2022/06/05 01:00:15;;;;;;;15.10;13.90;;;;;;;12.83;100.00;96674.59;5089806;28;20433;-73
2022/06/05 01:02:44;;;;;;;16.43;15.00;;;;;;;12.60;100.00;96637.88;5078361;28;20578;-73
2022/06/05 01:05:13;;;;;;;15.77;14.27;;;;;;;12.65;100.00;96653.56;5076259;28;20442;-73
2022/06/05 01:07:40;;;;;;;15.93;14.43;;;;;;;12.63;100.00;96647.03;5076211;28;20435;-73
2022/06/05 01:10:08;;;;;;;15.87;14.43;;;;;;;12.70;100.00;96648.03;5093169;28;20467;-72
2022/06/05 01:12:40;;;;;;;15.03;13.93;;;;;;;12.80;100.00;96649.47;5093996;28;20856;-73
2022/06/05 01:15:24;;;;;;;13.93;12.73;;;;;;;12.78;100.00;96649.03;5075747;28;20485;-73
2022/06/05 01:18:20;;;;;;;12.97;11.90;;;;;;;12.61;100.00;96651.91;5073784;28;20471;-74
2022/06/05 01:21:08;;;;;;;15.47;14.17;;;;;;;12.60;100.00;96658.31;5060038;28;20436;-74
2022/06/05 01:23:44;;;;;;;12.07;11.03;;;;;;;12.66;100.00;96636.53;5072484;28;21039;-74
2022/06/05 01:26:19;;;;;;;14.80;13.50;;;;;;;12.80;100.00;96661.97;5072350;28;20473;-74
2022/06/05 01:28:59;;;;;;;13.57;12.37;;;;;;;12.86;100.00;96656.13;5073716;28;20932;-74
2022/06/05 01:31:48;;;;;;;13.03;11.77;;;;;;;12.68;100.00;96660.84;5073755;28;20427;-74
2022/06/05 01:34:22;;;;;;;12.90;11.70;;;;;;;12.50;100.00;96667.47;5073569;28;20440;-74
2022/06/05 01:36:58;;;;;;;13.20;12.23;;;;;;;12.40;100.00;96659.94;5091327;28;20460;-74
2022/06/05 01:39:31;;;;;;;11.83;10.83;;;;;;;12.54;100.00;96662.28;5075288;28;20465;-74
2022/06/05 01:42:05;;;;;;;11.40;10.57;;;;;;;12.32;100.00;96632.44;5073743;28;20459;-74
2022/06/05 01:44:39;;;;;;;12.73;11.43;;;;;;;12.30;100.00;96629.34;5072090;28;20436;-74
2022/06/05 01:47:21;;;;;;;12.93;11.83;;;;;;;12.21;100.00;96651.72;5072127;28;20492;-74
2022/06/05 01:49:55;;;;;;;13.90;12.70;;;;;;;12.02;100.00;96631.81;5073525;28;20507;-74
2022/06/05 01:52:40;;;;;;;11.90;11.00;;;;;;;12.21;100.00;96646.44;5055461;28;20452;-74
2022/06/05 01:55:14;;;;;;;12.43;11.43;;;;;;;12.03;100.00;96612.16;5073270;28;20485;-74
2022/06/05 01:57:41;;;;;;;13.07;12.10;;;;;;;11.72;100.00;96594.03;5071780;28;20472;-74
2022/06/05 02:00:16;;;;;;;14.53;13.40;;;;;;;11.95;100.00;96614.91;5055231;28;20790;-74
2022/06/05 02:02:48;;;;;;;13.67;12.50;;;;;;;12.14;100.00;96631.81;5091238;28;20506;-74
2022/06/05 02:05:23;;;;;;;12.30;11.30;;;;;;;12.00;100.00;96612.03;5093198;28;20420;-74
2022/06/05 02:07:56;;;;;;;13.40;12.30;;;;;;;12.10;100.00;96624.88;5091056;28;20475;-74
2022/06/05 02:10:28;;;;;;;12.90;11.70;;;;;;;12.05;100.00;96628.50;5091827;28;20495;-74
2022/06/05 02:12:58;;;;;;;11.73;10.73;;;;;;;11.88;100.00;96614.63;5074994;28;20502;-74
2022/06/05 02:15:27;;;;;;;13.77;12.77;;;;;;;11.89;100.00;96630.25;5088404;28;20468;-74
2022/06/05 02:17:57;;;;;;;10.27;9.40;;;;;;;11.95;100.00;96607.72;5072776;28;20467;-74
2022/06/05 02:20:24;;;;;;;11.23;10.30;;;;;;;12.20;100.00;96636.94;5071259;28;20424;-74
2022/06/05 02:22:51;;;;;;;11.20;10.10;;;;;;;12.32;100.00;96632.44;5082821;28;20554;-74
2022/06/05 02:25:24;;;;;;;10.27;9.40;;;;;;;12.33;100.00;96623.38;5069834;28;20459;-74
2022/06/05 02:27:58;;;;;;;11.20;10.20;;;;;;;12.00;100.00;96618.09;5071255;28;20494;-74
2022/06/05 02:30:40;;;;;;;11.40;10.40;;;;;;;11.77;100.00;96620.34;5071103;28;20499;-74
2022/06/05 02:33:29;;;;;;;11.90;10.90;;;;;;;12.04;100.00;96623.53;5071232;28;20452;-74
2022/06/05 02:36:20;;;;;;;10.43;9.37;;;;;;;12.17;100.00;96625.13;5071344;28;20482;-72
2022/06/05 02:39:03;;;;;;;12.40;11.20;;;;;;;12.25;100.00;96626.88;5076620;28;21009;-72
2022/06/05 02:41:42;;;;;;;10.80;10.00;;;;;;;12.26;100.00;96619.69;5072193;28;20448;-72
2022/06/05 02:44:29;;;;;;;10.10;9.30;;;;;;;12.00;100.00;96612.03;5071252;28;20507;-72
2022/06/05 02:47:21;;;;;;;10.80;10.00;;;;;;;11.67;100.00;96615.44;5070843;28;20428;-72
2022/06/05 02:49:56;;;;;;;11.63;10.53;;;;;;;11.34;100.00;96578.31;5054231;28;20452;-72
2022/06/05 02:52:24;;;;;;;11.50;10.60;;;;;;;11.44;100.00;96601.78;5084696;28;20440;-72
2022/06/05 02:54:59;;;;;;;11.80;10.90;;;;;;;11.37;100.00;96567.13;5083826;28;20463;-72
2022/06/05 02:57:26;;;;;;;12.83;11.80;;;;;;;11.80;100.00;96606.47;5086072;28;20443;-72
2022/06/05 02:59:52;;;;;;;11.00;10.10;;;;;;;11.93;100.00;96601.19;5082571;28;20420;-71
2022/06/05 03:05:05;;;;;;;10.90;10.00;;;;;;;11.65;100.00;96561.25;5092106;28;20458;-72
2022/06/05 03:07:32;;;;;;;10.60;9.80;;;;;;;11.72;100.00;96580.78;5090515;28;20443;-72
2022/06/05 03:09:58;;;;;;;9.27;8.50;;;;;;;11.90;100.00;96584.09;5090673;28;21184;-72
2022/06/05 03:12:25;;;;;;;10.20;9.47;;;;;;;11.83;100.00;96563.41;5073628;28;20479;-72
2022/06/05 03:14:56;;;;;;;11.53;10.53;;;;;;;11.95;100.00;96575.91;5079186;28;20436;-72
2022/06/05 03:17:23;;;;;;;11.40;10.57;;;;;;;11.94;100.00;96547.09;5072000;28;20504;-72
2022/06/05 03:19:50;;;;;;;11.90;10.90;;;;;;;12.08;100.00;96545.69;5070302;28;20429;-72
2022/06/05 03:22:18;;;;;;;12.00;10.90;;;;;;;11.86;100.00;96521.47;5071445;28;20464;-72
2022/06/05 03:24:45;;;;;;;12.43;11.53;;;;;;;12.06;100.00;96536.53;5070708;28;20428;-72
2022/06/05 03:27:11;;;;;;;13.60;12.40;;;;;;;11.81;100.00;96519.81;5070263;28;20535;-72
2022/06/05 03:29:38;;;;;;;11.77;10.77;;;;;;;11.86;100.00;96522.25;5069960;28;20448;-72
2022/06/05 03:32:05;;;;;;;12.43;11.43;;;;;;;11.81;100.00;96506.56;5070166;28;20479;-72
2022/06/05 03:34:33;;;;;;;12.03;11.13;;;;;;;12.04;100.00;96514.88;5070174;28;20466;-72
2022/06/05 03:36:59;;;;;;;13.67;12.50;;;;;;;11.87;100.00;96492.00;5071741;28;20421;-71
2022/06/05 03:39:26;;;;;;;12.23;11.23;;;;;;;12.16;100.00;96520.19;5069995;28;20463;-72
2022/06/05 03:41:53;;;;;;;13.07;12.07;;;;;;;11.88;100.00;96477.63;5077319;28;20951;-72
2022/06/05 03:44:20;;;;;;;12.90;11.90;;;;;;;12.24;100.00;96499.97;5056647;28;20488;-72
2022/06/05 03:46:47;;;;;;;13.27;12.17;;;;;;;12.06;100.00;96473.69;5070250;28;20520;-72
2022/06/05 03:49:13;;;;;;;14.03;12.93;;;;;;;12.26;100.00;96501.16;5070026;28;20439;-72
2022/06/05 03:51:40;;;;;;;13.77;12.67;;;;;;;12.40;100.00;96498.19;5061509;28;20459;-72
2022/06/05 03:54:07;;;;;;;15.20;13.83;;;;;;;12.26;100.00;96487.91;5059656;28;20500;-72
2022/06/05 03:56:33;;;;;;;13.30;12.20;;;;;;;12.14;100.00;96450.81;5069878;28;20455;-72
2022/06/05 03:59:00;;;;;;;12.10;11.20;;;;;;;12.35;100.00;96487.81;5070022;28;20535;-72
2022/06/05 04:01:27;;;;;;;12.67;11.70;;;;;;;12.17;100.00;96491.81;5071210;28;20515;-72
2022/06/05 04:03:55;;;;;;;12.70;11.60;;;;;;;12.04;100.00;96488.38;5069658;28;20456;-72
2022/06/05 04:06:29;;;;;;;14.33;13.00;;;;;;;12.16;100.00;96482.31;5069930;28;20439;-72
2022/06/05 04:08:58;;;;;;;12.50;11.47;;;;;;;12.26;100.00;96485.25;5083551;28;20444;-72
2022/06/05 04:11:28;;;;;;;13.00;12.00;;;;;;;12.45;100.00;96511.22;5069886;28;21025;-72
2022/06/05 04:13:55;;;;;;;11.43;10.60;;;;;;;12.57;100.00;96511.22;5070077;28;20460;-72
2022/06/05 04:16:25;;;;;;;11.13;10.33;;;;;;;12.57;100.00;96510.44;5069806;28;20446;-72
2022/06/05 04:18:53;;;;;;;11.03;10.13;;;;;;;12.48;100.00;96477.97;5074995;28;20947;-72
2022/06/05 04:21:24;;;;;;;10.70;9.80;;;;;;;12.71;100.00;96503.66;5091119;28;20973;-72
2022/06/05 04:23:51;;;;;;;12.20;11.20;;;;;;;12.67;100.00;96480.78;5083796;28;20456;-73
2022/06/05 04:26:23;;;;;;;12.83;11.73;;;;;;;13.06;100.00;96505.78;5069569;28;20428;-73
2022/06/05 04:28:54;;;;;;;12.90;11.90;;;;;;;13.23;100.00;96497.56;5057021;28;20428;-73
2022/06/05 04:31:26;;;;;;;13.03;12.00;;;;;;;13.53;100.00;96529.84;5086441;28;20951;-72
2022/06/05 04:33:59;;;;;;;13.90;12.50;;;;;;;13.76;100.00;96547.91;5086680;28;21004;-72
2022/06/05 04:36:27;;;;;;;13.13;12.07;;;;;;;13.87;100.00;96549.69;5056940;28;20471;-73
2022/06/05 04:38:54;;;;;;;12.53;11.43;;;;;;;13.58;100.00;96513.66;5065988;28;20466;-73
2022/06/05 04:41:22;;;;;;;11.13;10.33;;;;;;;14.11;100.00;96548.75;5091093;28;20496;-73
2022/06/05 04:43:49;;;;;;;12.90;11.90;;;;;;;14.39;100.00;96554.00;5073289;28;20856;-73
2022/06/05 04:46:18;;;;;;;12.40;11.50;;;;;;;14.34;100.00;96537.53;5089807;28;20454;-72
2022/06/05 04:48:46;;;;;;;12.60;11.70;;;;;;;14.20;100.00;96532.66;5077663;28;20428;-73
2022/06/05 04:51:13;;;;;;;12.77;11.77;;;;;;;14.54;100.00;96557.78;5073289;28;21019;-73
2022/06/05 04:53:41;;;;;;;12.57;11.57;;;;;;;14.89;100.00;96565.78;5074862;28;20440;-73
2022/06/05 04:56:13;;;;;;;12.53;11.53;;;;;;;15.18;100.00;96555.72;5073435;28;20854;-73
2022/06/05 04:58:40;;;;;;;16.53;15.13;;;;;;;15.09;100.00;96558.59;5074771;28;20456;-73
2022/06/05 05:01:19;;;;;;;18.30;16.70;;;;;;;15.48;100.00;96578.00;5072914;28;20432;-73
2022/06/05 05:03:47;;;;;;;19.03;17.37;;;;;;;15.47;100.00;96563.16;5073069;28;20448;-73
2022/06/05 05:06:14;;;;;;;19.90;18.00;;;;;;;15.32;100.00;96516.03;5056680;28;21013;-73
2022/06/05 05:08:41;;;;;;;20.30;18.50;;;;;;;15.52;100.00;96522.13;5075840;28;20428;-73
2022/06/05 05:11:08;;;;;;;19.67;17.97;;;;;;;15.68;100.00;96551.38;5075774;28;20571;-73
2022/06/05 05:13:35;;;;;;;19.17;17.63;;;;;;;15.89;100.00;96543.75;5074293;28;21045;-73
2022/06/05 05:16:02;;;;;;;20.37;18.47;;;;;;;15.93;100.00;96518.72;5065275;28;20447;-74
2022/06/05 05:18:29;;;;;;;19.33;17.43;;;;;;;15.55;100.00;96487.53;5077255;28;20424;-73
2022/06/05 05:21:13;;;;;;;20.33;18.27;;;;;;;15.66;100.00;96501.09;5073229;28;20832;-73
2022/06/05 05:23:41;;;;;;;21.10;19.17;;;;;;;15.70;100.00;96501.91;5072938;28;20513;-73
2022/06/05 05:26:15;;;;;;;18.73;17.00;;;;;;;15.87;100.00;96500.66;5072913;28;20432;-74
2022/06/05 05:28:44;;;;;;;19.90;18.00;;;;;;;15.91;100.00;96522.84;5059530;28;20417;-74
2022/06/05 05:31:14;;;;;;;19.60;17.50;;;;;;;15.80;100.00;96530.66;5074057;28;21317;-73
2022/06/05 05:33:41;;;;;;;21.23;19.20;;;;;;;15.76;100.00;96515.72;5080241;28;20451;-73
2022/06/05 05:36:09;;;;;;;20.50;18.70;;;;;;;15.78;100.00;96484.94;5078291;28;20523;-73
2022/06/05 05:38:37;;;;;;;21.73;19.73;;;;;;;15.83;100.00;96491.84;5072560;28;20436;-73
2022/06/05 05:43:49;;;;;;;19.90;18.13;;;;;;;16.00;100.00;96485.25;5092097;28;20880;-73
2022/06/05 05:46:16;;;;;;;21.40;19.60;;;;;;;15.89;100.00;96501.09;5076377;28;20927;-73
2022/06/05 05:48:43;;;;;;;20.47;18.47;;;;;;;16.07;100.00;96494.16;5077310;28;20984;-73
2022/06/05 05:51:12;;;;;;;21.93;19.93;;;;;;;15.90;100.00;96484.75;5072691;28;20498;-73
2022/06/05 05:53:41;;;;;;;17.67;16.17;;;;;;;15.82;100.00;96453.00;5072672;28;20484;-73
2022/06/05 05:56:10;;;;;;;20.50;18.67;;;;;;;16.34;100.00;96488.84;5074263;28;20522;-73
2022/06/05 05:58:38;;;;;;;19.10;17.33;;;;;;;16.60;100.00;96490.75;5084125;28;20435;-73
2022/06/05 06:01:07;;;;;;;19.57;17.80;;;;;;;16.92;100.00;96493.84;5056781;28;20498;-74
2022/06/05 06:03:35;;;;;;;19.90;18.20;;;;;;;16.87;100.00;96470.91;5072479;28;20448;-73
2022/06/05 06:06:03;;;;;;;21.13;19.00;;;;;;;16.93;100.00;96474.00;5071951;28;20444;-73
2022/06/05 06:08:30;;;;;;;19.00;17.10;;;;;;;17.00;100.00;96458.84;5089015;28;20850;-73
2022/06/05 06:10:57;;;;;;;18.70;16.70;;;;;;;17.27;100.00;96464.88;5078182;28;20459;-74
2022/06/05 06:13:24;;;;;;;18.00;16.40;;;;;;;17.27;100.00;96440.06;5075342;28;20464;-74
2022/06/05 06:15:50;;;;;;;17.60;16.00;;;;;;;17.69;100.00;96467.22;5083407;28;20447;-74
2022/06/05 06:18:21;;;;;;;18.20;16.60;;;;;;;17.51;100.00;96470.84;5062821;28;20895;-73
2022/06/05 06:20:48;;;;;;;17.60;16.00;;;;;;;17.60;100.00;96453.34;5071678;28;20875;-73
2022/06/05 06:23:15;;;;;;;20.80;18.90;;;;;;;17.97;100.00;96488.09;5085237;28;20479;-73
2022/06/05 06:25:43;;;;;;;19.13;17.37;;;;;;;18.18;100.00;96489.41;5079367;28;20504;-73
2022/06/05 06:28:10;;;;;;;17.90;16.33;;;;;;;17.97;100.00;96484.66;5078387;28;20466;-73
2022/06/05 06:30:38;;;;;;;18.13;16.63;;;;;;;17.85;100.00;96490.28;5084577;28;20477;-74
2022/06/05 06:33:05;;;;;;;22.60;20.50;;;;;;;17.91;100.00;96473.53;5086179;28;20479;-74
2022/06/05 06:35:35;;;;;;;19.40;17.33;;;;;;;17.80;100.00;96482.59;5071692;28;20450;-73
2022/06/05 06:38:03;;;;;;;19.10;17.50;;;;;;;17.89;100.00;96472.34;5085375;28;20427;-74
2022/06/05 06:40:30;;;;;;;18.47;16.97;;;;;;;17.95;100.00;96474.31;5080518;28;20852;-74
2022/06/05 06:42:58;;;;;;;18.97;17.20;;;;;;;18.26;100.00;96488.31;5075537;28;20886;-73
2022/06/05 06:45:25;;;;;;;20.63;18.93;;;;;;;18.20;100.00;96477.19;5071631;28;20437;-73
2022/06/05 06:47:51;;;;;;;19.60;17.83;;;;;;;18.51;100.00;96491.91;5066463;28;20432;-73
2022/06/05 06:50:18;;;;;;;17.73;16.13;;;;;;;18.78;100.00;96497.84;5091426;28;20431;-73
2022/06/05 06:52:45;;;;;;;17.93;16.33;;;;;;;18.60;100.00;96470.19;5087161;28;20456;-73
2022/06/05 06:55:15;;;;;;;18.47;16.77;;;;;;;18.73;100.00;96495.53;5083096;28;20481;-73
2022/06/05 06:57:44;;;;;;;16.73;15.30;;;;;;;19.03;100.00;96492.59;5053056;28;20857;-73
2022/06/05 07:00:15;;;;;;;18.90;17.20;;;;;;;19.37;100.00;96477.03;5082174;28;20535;-74
2022/06/05 07:02:41;;;;;;;15.63;14.27;;;;;;;19.70;100.00;96483.25;5086182;28;20506;-74
2022/06/05 07:05:09;;;;;;;16.00;14.60;;;;;;;20.08;100.00;96477.13;5084126;28;20522;-74
2022/06/05 07:07:35;;;;;;;16.17;14.77;;;;;;;20.17;100.00;96497.47;5061068;28;20439;-74
2022/06/05 07:10:04;;;;;;;15.70;14.30;;;;;;;19.28;100.00;96500.75;5078926;28;20510;-74
2022/06/05 07:12:33;;;;;;;15.57;14.10;;;;;;;19.41;100.00;96488.53;5084362;28;20555;-73
2022/06/05 07:15:00;;;;;;;16.90;15.40;;;;;;;18.74;100.00;96416.69;5070715;28;20461;-74
2022/06/05 07:17:27;;;;;;;14.87;13.53;;;;;;;19.30;100.00;96460.16;5085542;28;20425;-73
2022/06/05 07:19:54;;;;;;;15.57;14.27;;;;;;;19.58;100.00;96468.28;5083968;28;20468;-74
2022/06/05 07:22:20;;;;;;;15.10;13.70;;;;;;;19.87;100.00;96485.16;5077080;28;20439;-74
2022/06/05 07:24:47;;;;;;;13.90;12.70;;;;;;;19.90;100.00;96476.38;5077566;28;20448;-74
2022/06/05 07:27:14;;;;;;;15.63;13.93;;;;;;;19.05;100.00;96385.00;5084065;28;20483;-74
2022/06/05 07:29:41;;;;;;;13.73;12.60;;;;;;;19.63;100.00;96434.94;5070752;28;20573;-74
2022/06/05 07:32:07;;;;;;;13.33;12.23;;;;;;;20.54;100.00;96472.88;5070623;28;20514;-74
2022/06/05 07:34:35;;;;;;;12.73;11.70;;;;;;;20.21;100.00;96452.56;5084160;28;20435;-74
2022/06/05 07:37:09;;;;;;;13.70;12.37;;;;;;;20.12;100.00;96457.56;5071810;28;20420;-73
2022/06/05 07:39:36;;;;;;;14.90;13.50;;;;;;;20.55;100.00;96464.41;5085404;28;20538;-72
2022/06/05 07:42:03;;;;;;;13.47;12.07;;;;;;;20.85;100.00;96460.53;5079669;28;20435;-73
2022/06/05 07:44:30;;;;;;;13.03;11.83;;;;;;;20.65;100.00;96447.50;5090514;28;20490;-73
2022/06/05 07:46:57;;;;;;;13.13;12.03;;;;;;;20.56;100.00;96454.44;5081953;28;20989;-73
2022/06/05 07:49:24;;;;;;;13.23;12.23;;;;;;;20.53;100.00;96442.56;5088043;28;20482;-73
2022/06/05 07:54:37;;;;;;;14.30;13.10;;;;;;;19.94;100.00;96396.59;5072065;28;21112;-73
2022/06/05 07:57:06;;;;;;;14.80;12.17;;;;;;;20.32;100.00;96426.47;5082595;28;20534;-73
2022/06/05 07:59:36;;;;;;;13.20;12.10;;;;;;;20.25;100.00;96421.88;5054153;28;20440;-73
2022/06/05 08:02:18;;;;;;;13.50;12.40;;;;;;;20.17;100.00;96414.22;5070194;28;20468;-73
2022/06/05 08:04:45;;;;;;;13.20;11.90;;;;;;;20.14;100.00;96434.53;5058927;28;20468;-72
2022/06/05 08:07:16;;;;;;;14.37;13.20;;;;;;;20.35;100.00;96456.00;5075750;28;20777;-73
2022/06/05 08:09:43;;;;;;;15.50;14.00;;;;;;;20.48;100.00;96453.69;5085729;28;20936;-73
2022/06/05 08:12:12;;;;;;;13.00;12.03;;;;;;;20.41;100.00;96469.03;5091533;28;20547;-73
2022/06/05 08:14:42;;;;;;;14.00;12.73;;;;;;;20.49;100.00;96459.84;5074394;28;20448;-73
2022/06/05 08:17:14;;;;;;;13.13;12.13;;;;;;;20.57;100.00;96485.56;5074020;28;20440;-72
2022/06/05 08:19:42;;;;;;;13.47;12.47;;;;;;;20.37;100.00;96469.03;5085848;28;20427;-73
2022/06/05 08:22:11;;;;;;;13.90;12.80;;;;;;;20.52;100.00;96492.06;5063681;28;20427;-73
2022/06/05 08:24:39;;;;;;;14.17;13.07;;;;;;;20.34;100.00;96489.38;5077545;28;20443;-73
2022/06/05 08:27:13;;;;;;;15.40;14.00;;;;;;;20.34;100.00;96510.09;5074820;28;20444;-73
2022/06/05 08:29:41;;;;;;;15.70;14.40;;;;;;;20.57;100.00;96512.41;5087388;28;20571;-73
2022/06/05 08:32:10;;;;;;;15.13;13.87;;;;;;;20.92;100.00;96508.88;5057203;28;20611;-73
2022/06/05 08:34:37;;;;;;;14.93;13.73;;;;;;;21.21;100.00;96514.91;5081941;28;20431;-73
2022/06/05 08:43:03;;;;;;;15.13;13.83;;;;;;;21.25;100.00;96553.38;5093838;28;20542;-73
2022/06/05 08:45:48;;;;;;;14.20;12.73;;;;;;;21.51;100.00;96560.94;5064889;28;20420;-74
2022/06/05 08:48:27;;;;;;;14.30;13.00;;;;;;;21.14;100.00;96553.38;5082944;28;20424;-74
2022/06/05 08:50:58;;;;;;;13.50;12.50;;;;;;;21.46;100.00;96577.47;5090222;28;20435;-73
2022/06/05 08:53:40;;;;;;;13.87;12.77;;;;;;;21.74;100.00;96583.88;5093812;28;20948;-73
2022/06/05 08:56:15;;;;;;;14.60;13.40;;;;;;;21.64;100.00;96579.34;5075660;28;20808;-74
2022/06/05 08:58:47;;;;;;;13.90;12.07;;;;;;;21.93;100.00;96599.56;5086028;28;20923;-74
2022/06/05 09:01:21;;;;;;;13.50;12.30;;;;;;;21.73;100.00;96576.97;5080304;28;20443;-74
2022/06/05 09:04:04;;;;;;;13.17;12.17;;;;;;;22.12;100.00;96609.09;5080252;28;20490;-73
2022/06/05 09:06:33;;;;;;;11.93;11.00;;;;;;;22.04;100.00;96610.28;5083395;28;20429;-74
2022/06/05 09:09:05;;;;;;;13.13;12.23;;;;;;;22.13;100.00;96619.47;5090083;28;20516;-74
2022/06/05 09:11:41;;;;;;;13.47;11.90;;;;;;;22.21;100.00;96620.19;5089905;28;20529;-74
2022/06/05 09:14:40;;;;;;;13.63;12.63;;;;;;;21.95;100.00;96623.41;5086784;28;20875;-73
2022/06/05 09:17:16;;;;;;;11.97;11.00;;;;;;;22.00;100.00;96614.91;5047952;28;20444;-74
2022/06/05 09:19:44;;;;;;;12.60;11.60;;;;;;;21.43;100.00;96582.88;5081188;28;20436;-74
2022/06/05 09:22:37;;;;;;;13.27;12.27;;;;;;;21.89;100.00;96614.19;5086478;28;20441;-74
2022/06/05 09:25:29;;;;;;;12.30;11.30;;;;;;;21.93;100.00;96621.09;5069297;28;20437;-74
2022/06/05 09:28:08;;;;;;;13.30;12.20;;;;;;;22.21;100.00;96619.44;5072962;28;20454;-74
2022/06/05 09:30:47;;;;;;;11.80;10.90;;;;;;;22.12;100.00;96609.84;5068975;28;20814;-74
2022/06/05 09:33:25;;;;;;;12.63;11.57;;;;;;;21.82;100.00;96598.84;5080685;28;20574;-74
2022/06/05 09:35:58;;;;;;;11.20;10.30;;;;;;;21.54;100.00;96556.69;5092928;28;20471;-73
2022/06/05 09:38:59;;;;;;;11.37;10.57;;;;;;;21.86;100.00;96591.50;5076029;28;20935;-73
2022/06/05 09:41:32;;;;;;;12.03;11.10;;;;;;;21.59;100.00;96593.94;5080631;28;20995;-72
2022/06/05 09:44:30;;;;;;;11.60;10.57;;;;;;;21.30;100.00;96574.47;5094203;28;20440;-74
2022/06/05 09:47:03;;;;;;;12.77;11.77;;;;;;;21.41;100.00;96561.75;5066864;28;20920;-75
2022/06/05 09:49:36;;;;;;;12.27;11.37;;;;;;;20.93;100.00;96527.28;5069368;28;20433;-76
2022/06/05 09:52:24;;;;;;;11.67;10.80;;;;;;;21.17;100.00;96566.03;5072555;28;20467;-74
2022/06/05 09:55:18;;;;;;;11.97;10.90;;;;;;;21.19;100.00;96563.72;5055862;28;20855;-74
2022/06/05 10:00:56;;;;;;;11.77;10.50;;;;;;;21.09;100.00;96528.78;5078808;28;20471;-73
2022/06/05 10:03:35;;;;;;;13.50;12.40;;;;;;;20.90;100.00;96513.88;5061276;28;20460;-74
2022/06/05 10:06:14;;;;;;;13.23;12.10;;;;;;;21.04;100.00;96495.00;5072305;28;20448;-73
2022/06/05 10:08:59;;;;;;;12.90;12.00;;;;;;;20.92;100.00;96480.06;5088172;28;20446;-74
2022/06/05 10:11:51;;;;;;;13.37;12.33;;;;;;;20.82;100.00;96472.78;5075263;28;20439;-74
2022/06/05 10:14:17;;;;;;;14.30;12.90;;;;;;;20.88;100.00;96483.94;5075568;28;20544;-74
2022/06/05 10:17:40;;;;;;;14.53;13.23;;;;;;;20.69;100.00;96489.72;5072363;28;20875;-74
2022/06/05 10:20:39;;;;;;;12.90;12.00;;;;;;;20.69;100.00;96460.16;5085771;28;20941;-74
2022/06/05 10:23:32;;;;;;;14.77;13.60;;;;;;;21.11;100.00;96467.31;5073447;28;20466;-74
2022/06/05 10:26:15;;;;;;;14.43;13.13;;;;;;;20.73;100.00;96432.16;5062052;28;20445;-74
2022/06/05 10:28:44;;;;;;;13.90;12.57;;;;;;;20.49;100.00;96436.44;5084576;28;20482;-74
2022/06/05 10:31:19;;;;;;;14.70;13.27;;;;;;;20.43;100.00;96427.22;5071837;28;20519;-74
2022/06/05 10:34:11;;;;;;;16.00;14.70;;;;;;;20.41;100.00;96423.38;5061174;28;20444;-74
2022/06/05 10:36:46;;;;;;;14.80;13.50;;;;;;;20.47;100.00;96408.44;5085577;28;20832;-74
2022/06/05 10:39:22;;;;;;;14.80;13.60;;;;;;;20.26;100.00;96387.72;5072914;28;20432;-74
2022/06/05 10:41:52;;;;;;;15.10;13.73;;;;;;;20.13;100.00;96354.38;5085042;28;20912;-74
2022/06/05 10:44:33;;;;;;;14.07;12.87;;;;;;;19.71;100.00;96284.31;5086477;28;20461;-74
2022/06/05 10:47:15;;;;;;;14.37;13.17;;;;;;;20.12;100.00;96304.53;5082416;28;20946;-75
2022/06/05 10:50:01;;;;;;;16.00;14.70;;;;;;;19.95;100.00;96312.25;5072330;28;20432;-75
2022/06/05 10:52:36;;;;;;;13.70;12.60;;;;;;;20.44;100.00;96342.06;5088609;28;20481;-74
2022/06/05 10:55:34;;;;;;;15.07;13.53;;;;;;;20.36;100.00;96360.84;5082126;28;20439;-74
2022/06/05 10:58:21;;;;;;;14.73;13.47;;;;;;;20.59;100.00;96360.41;5068186;28;20501;-82
2022/06/05 11:01:13;;;;;;;12.80;11.80;;;;;;;20.44;100.00;96387.72;5072364;28;20467;-82
2022/06/05 11:03:52;;;;;;;12.63;11.63;;;;;;;20.49;100.00;96353.16;5095080;28;20460;-81
2022/06/05 11:06:25;;;;;;;14.17;13.07;;;;;;;20.89;100.00;96362.56;5077907;28;20539;-82
2022/06/05 11:09:16;;;;;;;14.13;12.93;;;;;;;20.64;100.00;96364.59;5079778;28;20454;-82
2022/06/05 11:15:28;;;;;;;13.97;12.77;;;;;;;20.06;100.00;96342.53;5090273;28;20437;-83
2022/06/05 11:18:20;;;;;;;15.00;13.80;;;;;;;19.74;100.00;96309.59;5086507;28;20440;-82
2022/06/05 11:20:57;;;;;;;15.23;13.77;;;;;;;19.85;100.00;96313.03;5063470;28;20437;-82
2022/06/05 11:23:32;;;;;;;13.00;11.93;;;;;;;20.02;100.00;96290.75;5078636;28;20471;-82
2022/06/05 11:26:12;;;;;;;13.67;12.47;;;;;;;19.61;100.00;96300.41;5065572;28;20441;-82
2022/06/05 11:29:14;;;;;;;15.20;14.00;;;;;;;19.57;100.00;96311.16;5092745;28;20444;-82
2022/06/05 11:31:50;;;;;;;13.20;12.07;;;;;;;19.69;100.00;96305.41;5090261;28;20515;-82
2022/06/05 11:34:24;;;;;;;16.47;15.10;;;;;;;19.61;100.00;96269.00;5089043;28;20443;-81
2022/06/05 11:36:54;;;;;;;14.10;12.87;;;;;;;19.41;100.00;96271.31;5077018;28;20421;-80
2022/06/05 11:39:39;;;;;;;14.27;13.07;;;;;;;19.97;100.00;96318.00;5074710;28;20448;-81
2022/06/05 11:42:12;;;;;;;14.77;13.37;;;;;;;20.10;100.00;96312.22;5067880;28;20434;-81
2022/06/05 11:44:50;;;;;;;14.90;13.60;;;;;;;20.05;100.00;96318.75;5091708;28;20456;-81
2022/06/05 11:47:32;;;;;;;14.97;13.67;;;;;;;19.65;100.00;96311.94;5077723;28;20433;-81
2022/06/05 11:50:21;;;;;;;15.07;13.57;;;;;;;19.54;100.00;96321.88;5065359;28;20447;-81
2022/06/05 11:53:42;;;;;;;14.53;13.33;;;;;;;19.55;100.00;96304.66;5077206;28;20478;-81
2022/06/05 11:56:18;;;;;;;14.67;13.13;;;;;;;19.41;100.00;96295.44;5068265;28;20432;-81
2022/06/05 11:59:14;;;;;;;14.47;13.07;;;;;;;19.42;100.00;96269.38;5080968;28;20448;-80